Terminal Aerodrome Forecast
Issued by NWS Bismarck, ND

Home | Current Version | Previous Version | Graphics & Text | Print | Product List | Glossary On
Versions: 1 2 3 4 5 6 7 8 9 10 11 12 13 14
539
FTUS43 KBIS 251124
TAFBIS
TAF
KBIS 251124Z 2512/2612 02004KT P6SM VCTS SCT080CB BKN200
      TEMPO 2513/2517 -SHRA BKN080 OVC120
     FM251800 01008KT P6SM VCSH BKN120 BKN200
     FM252300 35007KT P6SM FEW120 SCT200
     FM260800 VRB03KT P6SM FEW110 FEW250=

USA.gov is the U.S. government's official web portal to all federal, state and local government web resources and services.